Time,TemperatureF,DewpointF,PressureIn,WindDirection,WindDirectionDegrees,WindSpeedMPH,WindSpeedGustMPH,Humidity,HourlyPrecipIn,Conditions,Clouds,dailyrainin,SolarRadiationWatts/m^2,SoftwareType,DateUTC
2013-10-28 00:43:00,26.0,15.0,-100.00,NNE,31,5.0,14.0,63,0.00,,,0.00,0.000000,,2013-10-28 05:43:00,
2013-10-28 00:53:00,26.0,15.0,-100.00,NNE,31,5.0,14.0,63,0.00,,,0.00,0.000000,,2013-10-28 05:53:00,
2013-10-28 01:03:00,26.0,15.0,-100.00,NNE,31,5.0,14.0,63,0.00,,,0.00,0.000000,,2013-10-28 06:03:00,
2013-10-28 01:43:00,25.0,14.0,-100.00,NNE,19,5.0,11.0,63,0.00,,,0.00,0.000000,,2013-10-28 06:43:00,
2013-10-28 01:52:00,25.0,14.0,-100.00,NNE,19,5.0,11.0,63,0.00,,,0.00,0.000000,,2013-10-28 06:52:00,
2013-10-28 02:02:00,25.0,14.0,-100.00,NNE,19,5.0,11.0,63,0.00,,,0.00,0.000000,,2013-10-28 07:02:00,
2013-10-28 02:42:00,25.0,15.0,-100.00,NNE,33,5.0,11.0,64,0.00,,,0.00,0.000000,,2013-10-28 07:42:00,
2013-10-28 02:52:00,25.0,15.0,-100.00,NNE,33,5.0,11.0,64,0.00,,,0.00,0.000000,,2013-10-28 07:52:00,
2013-10-28 03:02:00,25.0,15.0,-100.00,NNE,33,5.0,11.0,64,0.00,,,0.00,0.000000,,2013-10-28 08:02:00,
2013-10-28 03:22:00,25.0,15.0,-100.00,NE,49,5.0,10.0,64,0.00,,,0.00,0.000000,,2013-10-28 08:22:00,
2013-10-28 03:32:00,25.0,15.0,-100.00,NE,49,5.0,10.0,64,0.00,,,0.00,0.000000,,2013-10-28 08:32:00,
2013-10-28 03:42:00,25.0,15.0,-100.00,NE,49,5.0,10.0,64,0.00,,,0.00,0.000000,,2013-10-28 08:42:00,
2013-10-28 03:52:00,25.0,15.0,-100.00,NE,49,5.0,10.0,64,0.00,,,0.00,0.000000,,2013-10-28 08:52:00,
2013-10-28 04:02:00,25.0,15.0,-100.00,NE,49,5.0,10.0,64,0.00,,,0.00,0.000000,,2013-10-28 09:02:00,
2013-10-28 04:43:00,25.0,14.0,-100.00,NE,39,4.0,13.0,63,0.00,,,0.00,0.000000,,2013-10-28 09:43:00,
2013-10-28 04:53:00,25.0,14.0,-100.00,NE,39,4.0,13.0,63,0.00,,,0.00,0.000000,,2013-10-28 09:53:00,
2013-10-28 05:03:00,25.0,14.0,-100.00,NE,39,4.0,13.0,63,0.00,,,0.00,0.000000,,2013-10-28 10:03:00,
2013-10-28 05:43:00,24.0,15.0,-100.00,NNE,32,3.0,7.0,68,0.00,,,0.00,0.000000,,2013-10-28 10:43:00,
2013-10-28 05:53:00,24.0,15.0,-100.00,NNE,32,3.0,7.0,68,0.00,,,0.00,0.000000,,2013-10-28 10:53:00,
2013-10-28 06:03:00,24.0,15.0,-100.00,NNE,32,3.0,7.0,68,0.00,,,0.00,0.000000,,2013-10-28 11:03:00,
2013-10-28 06:42:00,22.0,14.0,-100.00,NNE,17,2.0,8.0,70,0.00,,,0.00,0.000000,,2013-10-28 11:42:00,
2013-10-28 06:52:00,22.0,14.0,-100.00,NNE,17,2.0,8.0,70,0.00,,,0.00,0.000000,,2013-10-28 11:52:00,
2013-10-28 07:02:00,22.0,14.0,-100.00,NNE,17,2.0,8.0,70,0.00,,,0.00,0.000000,,2013-10-28 12:02:00,
2013-10-28 07:42:00,20.0,14.0,-100.00,North,4,2.0,5.0,77,0.00,,,0.00,0.000000,,2013-10-28 12:42:00,
2013-10-28 07:52:00,20.0,14.0,-100.00,North,4,2.0,5.0,77,0.00,,,0.00,0.000000,,2013-10-28 12:52:00,
2013-10-28 08:01:00,20.0,14.0,-100.00,North,4,2.0,5.0,77,0.00,,,0.00,0.000000,,2013-10-28 13:01:00,
2013-10-28 08:42:00,20.0,15.0,-100.00,NNE,31,3.0,5.0,81,0.00,,,-99.99,4.000000,,2013-10-28 13:42:00,
2013-10-28 08:52:00,20.0,15.0,-100.00,NNE,31,3.0,5.0,81,0.00,,,-99.99,4.000000,,2013-10-28 13:52:00,
2013-10-28 09:02:00,20.0,15.0,-100.00,NNE,31,3.0,5.0,81,0.00,,,-99.99,4.000000,,2013-10-28 14:02:00,
2013-10-28 09:42:00,26.0,18.0,-100.00,NNE,28,4.0,7.0,71,0.00,,,0.00,94.000000,,2013-10-28 14:42:00,
2013-10-28 09:52:00,26.0,18.0,-100.00,NNE,28,4.0,7.0,71,0.00,,,0.00,94.000000,,2013-10-28 14:52:00,
2013-10-28 10:02:00,26.0,18.0,-100.00,NNE,28,4.0,7.0,71,0.00,,,0.00,94.000000,,2013-10-28 15:02:00,
2013-10-28 10:43:00,28.0,17.0,-100.00,NNE,21,3.0,8.0,63,0.00,,,0.00,277.000000,,2013-10-28 15:43:00,
2013-10-28 10:53:00,28.0,17.0,-100.00,NNE,21,3.0,8.0,63,0.00,,,0.00,277.000000,,2013-10-28 15:53:00,
2013-10-28 11:03:00,28.0,17.0,-100.00,NNE,21,3.0,8.0,63,0.00,,,0.00,277.000000,,2013-10-28 16:03:00,
2013-10-28 11:43:00,31.0,18.0,-100.00,WNW,287,2.0,7.0,57,0.00,,,0.00,423.000000,,2013-10-28 16:43:00,
2013-10-28 11:53:00,31.0,18.0,-100.00,WNW,287,2.0,7.0,57,0.00,,,0.00,423.000000,,2013-10-28 16:53:00,
2013-10-28 12:02:00,31.0,18.0,-100.00,WNW,287,2.0,7.0,57,0.00,,,0.00,423.000000,,2013-10-28 17:02:00,
2013-10-28 12:42:00,32.0,17.0,-100.00,WNW,294,4.0,6.0,53,0.00,,,0.00,526.000000,,2013-10-28 17:42:00,
2013-10-28 12:52:00,32.0,17.0,-100.00,WNW,294,4.0,6.0,53,0.00,,,0.00,526.000000,,2013-10-28 17:52:00,
2013-10-28 13:02:00,32.0,17.0,-100.00,WNW,294,4.0,6.0,53,0.00,,,0.00,526.000000,,2013-10-28 18:02:00,
2013-10-28 13:42:00,34.0,18.0,-100.00,NNW,332,4.0,8.0,52,0.00,,,0.00,570.000000,,2013-10-28 18:42:00,
2013-10-28 13:52:00,34.0,18.0,-100.00,NNW,332,4.0,8.0,52,0.00,,,0.00,570.000000,,2013-10-28 18:52:00,
2013-10-28 14:01:00,34.0,18.0,-100.00,NNW,332,4.0,8.0,52,0.00,,,0.00,570.000000,,2013-10-28 19:01:00,
2013-10-28 14:42:00,33.0,15.0,-100.00,NW,318,3.0,9.0,47,0.00,,,0.00,408.000000,,2013-10-28 19:42:00,
2013-10-28 14:52:00,33.0,15.0,-100.00,NW,318,3.0,9.0,47,0.00,,,0.00,408.000000,,2013-10-28 19:52:00,
2013-10-28 15:02:00,33.0,15.0,-100.00,NW,318,3.0,9.0,47,0.00,,,0.00,408.000000,,2013-10-28 20:02:00,
2013-10-28 15:22:00,34.0,15.0,-100.00,NW,310,5.0,9.0,46,0.00,,,0.00,85.000000,,2013-10-28 20:22:00,
2013-10-28 15:32:00,34.0,15.0,-100.00,NW,310,5.0,9.0,46,0.00,,,0.00,85.000000,,2013-10-28 20:32:00,
2013-10-28 15:42:00,34.0,15.0,-100.00,NW,310,5.0,9.0,46,0.00,,,0.00,85.000000,,2013-10-28 20:42:00,
2013-10-28 15:52:00,34.0,15.0,-100.00,NW,310,5.0,9.0,46,0.00,,,0.00,85.000000,,2013-10-28 20:52:00,
2013-10-28 16:02:00,34.0,15.0,-100.00,NW,310,5.0,9.0,46,0.00,,,0.00,85.000000,,2013-10-28 21:02:00,
2013-10-28 16:04:00,35.0,15.0,-100.00,NNW,344,4.0,9.0,44,0.00,,,0.00,259.000000,,2013-10-28 21:04:00,
2013-10-28 16:22:00,35.0,15.0,-100.00,NNW,344,4.0,9.0,44,0.00,,,0.00,259.000000,,2013-10-28 21:22:00,
2013-10-28 16:34:00,35.0,15.0,-100.00,NNW,344,4.0,9.0,44,0.00,,,0.00,259.000000,,2013-10-28 21:34:00,
2013-10-28 16:43:00,35.0,15.0,-100.00,NNW,344,4.0,9.0,44,0.00,,,0.00,259.000000,,2013-10-28 21:43:00,
2013-10-28 16:54:00,35.0,15.0,-100.00,NNW,344,4.0,9.0,44,0.00,,,0.00,259.000000,,2013-10-28 21:54:00,
2013-10-28 17:43:00,32.0,13.0,-100.00,NNW,342,4.0,7.0,45,0.00,,,0.00,168.000000,,2013-10-28 22:43:00,
2013-10-28 17:53:00,32.0,13.0,-100.00,NNW,342,4.0,7.0,45,0.00,,,0.00,168.000000,,2013-10-28 22:53:00,
2013-10-28 18:03:00,32.0,13.0,-100.00,NNW,342,4.0,7.0,45,0.00,,,0.00,168.000000,,2013-10-28 23:03:00,
2013-10-28 18:43:00,28.0,15.0,-100.00,North,356,2.0,8.0,58,0.00,,,0.00,24.000000,,2013-10-28 23:43:00,
2013-10-28 18:52:00,28.0,15.0,-100.00,North,356,2.0,8.0,58,0.00,,,0.00,24.000000,,2013-10-28 23:52:00,
2013-10-28 19:01:00,28.0,15.0,-100.00,North,356,2.0,8.0,58,0.00,,,0.00,24.000000,,2013-10-29 00:01:00,
2013-10-28 19:22:00,25.0,15.0,-100.00,North,349,2.0,4.0,66,0.00,,,0.00,0.000000,,2013-10-29 00:22:00,
2013-10-28 19:32:00,25.0,15.0,-100.00,North,349,2.0,4.0,66,0.00,,,0.00,0.000000,,2013-10-29 00:32:00,
2013-10-28 19:42:00,25.0,15.0,-100.00,North,349,2.0,4.0,66,0.00,,,0.00,0.000000,,2013-10-29 00:42:00,
2013-10-28 19:52:00,25.0,15.0,-100.00,North,349,2.0,4.0,66,0.00,,,0.00,0.000000,,2013-10-29 00:52:00,
2013-10-28 20:01:00,25.0,15.0,-100.00,North,349,2.0,4.0,66,0.00,,,0.00,0.000000,,2013-10-29 01:01:00,
2013-10-28 21:21:00,23.0,14.0,-100.00,NW,308,2.0,4.0,69,-99.99,,,0.00,0.000000,,2013-10-29 02:21:00,
2013-10-28 21:34:00,23.0,14.0,-100.00,NW,308,2.0,4.0,69,-99.99,,,0.00,0.000000,,2013-10-29 02:34:00,
2013-10-28 21:44:00,23.0,14.0,-100.00,NW,308,2.0,4.0,69,-99.99,,,0.00,0.000000,,2013-10-29 02:44:00,
2013-10-28 21:54:00,23.0,14.0,-100.00,NW,308,2.0,4.0,69,-99.99,,,0.00,0.000000,,2013-10-29 02:54:00,
2013-10-28 22:03:00,23.0,14.0,-100.00,NW,308,2.0,4.0,69,-99.99,,,0.00,0.000000,,2013-10-29 03:03:00,
2013-10-28 22:04:00,23.0,15.0,-100.00,NW,314,2.0,3.0,72,0.00,,,0.00,0.000000,,2013-10-29 03:04:00,
2013-10-28 22:40:00,-999.0,-99.9,-100.00,NW,314,2.0,3.0,72,0.00,,,0.00,0.000000,,2013-10-29 03:40:00,
2013-10-28 22:48:00,23.0,15.0,-100.00,NW,314,2.0,3.0,72,0.00,,,0.00,0.000000,,2013-10-29 03:48:00,
2013-10-28 22:55:00,23.0,15.0,-100.00,NW,314,2.0,3.0,72,0.00,,,0.00,0.000000,,2013-10-29 03:55:00,
2013-10-28 23:04:00,23.0,16.0,-100.00,NNW,336,3.0,4.0,75,0.00,,,0.00,0.000000,,2013-10-29 04:04:00,
2013-10-28 23:44:00,23.0,16.0,-100.00,NNW,336,3.0,4.0,75,0.00,,,0.00,0.000000,,2013-10-29 04:44:00,
2013-10-28 23:57:00,23.0,16.0,-100.00,NNW,336,3.0,4.0,75,0.00,,,0.00,0.000000,,2013-10-29 04:57:00,